sensor_id;sensor_type;location;lat;lon;timestamp;temperature;humidity
63397;SHT31;49532;45.068;38.928;2022-08-07T05:51:50;35.93;39.92
63397;SHT31;49532;45.068;38.928;2022-08-07T05:56:55;36.39;39.29
63397;SHT31;49532;45.068;38.928;2022-08-07T06:01:57;36.41;38.51
63397;SHT31;49532;45.068;38.928;2022-08-07T06:07:00;36.64;37.88
63397;SHT31;49532;45.068;38.928;2022-08-07T06:12:07;36.75;37.91
63397;SHT31;49532;45.068;38.928;2022-08-07T06:17:10;37.01;37.52
63397;SHT31;49532;45.068;38.928;2022-08-07T06:22:15;37.11;36.95
63397;SHT31;49532;45.068;38.928;2022-08-07T06:27:21;37.08;36.92
63397;SHT31;49532;45.068;38.928;2022-08-07T06:32:22;37.05;36.58
63397;SHT31;49532;45.068;38.928;2022-08-07T06:37:24;37.15;36.95
63397;SHT31;49532;45.068;38.928;2022-08-07T06:42:28;37.28;36.83
63397;SHT31;49532;45.068;38.928;2022-08-07T06:47:53;37.36;36.77
63397;SHT31;49532;45.068;38.928;2022-08-07T06:52:55;37.25;36.05
63397;SHT31;49532;45.068;38.928;2022-08-07T06:58:03;36.98;36.37
63397;SHT31;49532;45.068;38.928;2022-08-07T07:03:12;36.74;35.92
63397;SHT31;49532;45.068;38.928;2022-08-07T07:08:14;36.44;36.39
63397;SHT31;49532;45.068;38.928;2022-08-07T07:13:17;36.39;37.13
63397;SHT31;49532;45.068;38.928;2022-08-07T07:18:24;36.57;36.67
63397;SHT31;49532;45.068;38.928;2022-08-07T07:23:28;36.48;36.26
63397;SHT31;49532;45.068;38.928;2022-08-07T07:28:40;36.47;35.66
63397;SHT31;49532;45.068;38.928;2022-08-07T07:33:43;36.43;35.87
63397;SHT31;49532;45.068;38.928;2022-08-07T07:38:46;36.09;35.94
63397;SHT31;49532;45.068;38.928;2022-08-07T07:43:50;35.79;36.59
63397;SHT31;49532;45.068;38.928;2022-08-07T07:48:53;35.89;36.77
63397;SHT31;49532;45.068;38.928;2022-08-07T07:53:56;35.75;36.17
63397;SHT31;49532;45.068;38.928;2022-08-07T07:59:03;35.76;36.48
63397;SHT31;49532;45.068;38.928;2022-08-07T08:04:07;35.72;36.49
63397;SHT31;49532;45.068;38.928;2022-08-07T08:09:08;35.56;37.22
63397;SHT31;49532;45.068;38.928;2022-08-07T08:14:10;35.66;36.77
63397;SHT31;49532;45.068;38.928;2022-08-07T08:19:16;35.39;36.75
63397;SHT31;49532;45.068;38.928;2022-08-07T08:24:17;35.18;37.62
63397;SHT31;49532;45.068;38.928;2022-08-07T08:29:45;35.18;38.20
63397;SHT31;49532;45.068;38.928;2022-08-07T08:34:50;35.21;38.07
63397;SHT31;49532;45.068;38.928;2022-08-07T08:39:53;34.88;38.60
63397;SHT31;49532;45.068;38.928;2022-08-07T08:50:19;34.39;39.19
63397;SHT31;49532;45.068;38.928;2022-08-07T09:00:29;34.20;39.88
63397;SHT31;49532;45.068;38.928;2022-08-07T09:05:42;34.22;39.52
63397;SHT31;49532;45.068;38.928;2022-08-07T09:11:13;33.92;39.57
63397;SHT31;49532;45.068;38.928;2022-08-07T09:37:42;33.33;41.05
63397;SHT31;49532;45.068;38.928;2022-08-07T09:43:44;33.16;41.24
63397;SHT31;49532;45.068;38.928;2022-08-07T09:48:40;33.00;42.02
63397;SHT31;49532;45.068;38.928;2022-08-07T09:53:44;33.06;41.92
63397;SHT31;49532;45.068;38.928;2022-08-07T10:04:27;32.91;41.54
63397;SHT31;49532;45.068;38.928;2022-08-07T10:09:45;32.70;41.92
63397;SHT31;49532;45.068;38.928;2022-08-07T10:15:09;32.28;42.66
63397;SHT31;49532;45.068;38.928;2022-08-07T10:36:32;32.40;42.14
63397;SHT31;49532;45.068;38.928;2022-08-07T10:41:43;32.42;41.77
63397;SHT31;49532;45.068;38.928;2022-08-07T10:46:53;32.24;41.76
63397;SHT31;49532;45.068;38.928;2022-08-07T10:52:08;32.19;41.58
63397;SHT31;49532;45.068;38.928;2022-08-07T10:57:22;32.00;41.53
63397;SHT31;49532;45.068;38.928;2022-08-07T11:18:49;32.17;42.30
63397;SHT31;49532;45.068;38.928;2022-08-07T11:34:40;32.25;42.40
63397;SHT31;49532;45.068;38.928;2022-08-07T11:50:06;32.12;41.25
63397;SHT31;49532;45.068;38.928;2022-08-07T12:06:13;32.09;41.45
63397;SHT31;49532;45.068;38.928;2022-08-07T12:11:23;32.08;40.75
63397;SHT31;49532;45.068;38.928;2022-08-07T12:16:28;32.05;41.07
63397;SHT31;49532;45.068;38.928;2022-08-07T12:27:12;31.82;42.26
63397;SHT31;49532;45.068;38.928;2022-08-07T12:33:11;31.88;41.44
63397;SHT31;49532;45.068;38.928;2022-08-07T12:37:52;31.91;41.72
63397;SHT31;49532;45.068;38.928;2022-08-07T12:42:56;31.92;41.71
63397;SHT31;49532;45.068;38.928;2022-08-07T12:48:12;31.91;41.80
63397;SHT31;49532;45.068;38.928;2022-08-07T12:53:33;31.91;41.30
63397;SHT31;49532;45.068;38.928;2022-08-07T12:58:43;31.97;41.03
63397;SHT31;49532;45.068;38.928;2022-08-07T13:25:00;31.70;41.51
63397;SHT31;49532;45.068;38.928;2022-08-07T13:30:09;31.69;41.23
63397;SHT31;49532;45.068;38.928;2022-08-07T13:35:36;31.66;41.76
63397;SHT31;49532;45.068;38.928;2022-08-07T13:41:05;31.66;40.90
63397;SHT31;49532;45.068;38.928;2022-08-07T13:46:06;31.59;41.24
63397;SHT31;49532;45.068;38.928;2022-08-07T13:51:09;31.50;41.09
63397;SHT31;49532;45.068;38.928;2022-08-07T13:56:16;31.46;41.14
63397;SHT31;49532;45.068;38.928;2022-08-07T14:01:19;31.39;41.20
63397;SHT31;49532;45.068;38.928;2022-08-07T14:06:22;31.33;41.23
63397;SHT31;49532;45.068;38.928;2022-08-07T14:11:25;31.27;41.38
63397;SHT31;49532;45.068;38.928;2022-08-07T14:16:35;31.22;42.11
63397;SHT31;49532;45.068;38.928;2022-08-07T14:21:43;31.16;42.33
63397;SHT31;49532;45.068;38.928;2022-08-07T14:26:56;31.16;42.93
63397;SHT31;49532;45.068;38.928;2022-08-07T14:32:00;31.09;42.11
63397;SHT31;49532;45.068;38.928;2022-08-07T14:37:03;31.09;42.06
63397;SHT31;49532;45.068;38.928;2022-08-07T14:42:11;31.04;42.11
63397;SHT31;49532;45.068;38.928;2022-08-07T14:47:14;31.04;42.80
63397;SHT31;49532;45.068;38.928;2022-08-07T14:52:18;31.00;42.78
63397;SHT31;49532;45.068;38.928;2022-08-07T14:57:22;30.92;42.81
63397;SHT31;49532;45.068;38.928;2022-08-07T15:02:25;30.86;42.82
63397;SHT31;49532;45.068;38.928;2022-08-07T15:07:27;30.79;42.41
63397;SHT31;49532;45.068;38.928;2022-08-07T15:12:34;30.76;42.64
63397;SHT31;49532;45.068;38.928;2022-08-07T15:17:52;30.71;42.23
63397;SHT31;49532;45.068;38.928;2022-08-07T15:22:54;30.64;41.88
63397;SHT31;49532;45.068;38.928;2022-08-07T15:28:00;30.61;41.72
63397;SHT31;49532;45.068;38.928;2022-08-07T15:33:02;30.54;41.66
63397;SHT31;49532;45.068;38.928;2022-08-07T15:38:04;30.47;41.67
63397;SHT31;49532;45.068;38.928;2022-08-07T15:48:34;30.37;41.78
63397;SHT31;49532;45.068;38.928;2022-08-07T15:53:50;30.34;41.91
63397;SHT31;49532;45.068;38.928;2022-08-07T15:58:53;30.25;42.37
63397;SHT31;49532;45.068;38.928;2022-08-07T16:04:00;30.14;42.43
63397;SHT31;49532;45.068;38.928;2022-08-07T16:09:07;30.09;42.05
63397;SHT31;49532;45.068;38.928;2022-08-07T16:14:19;30.02;42.56
63397;SHT31;49532;45.068;38.928;2022-08-07T16:19:55;29.89;42.62
63397;SHT31;49532;45.068;38.928;2022-08-07T16:25:11;29.79;42.76
63397;SHT31;49532;45.068;38.928;2022-08-07T16:30:16;29.69;42.76
63397;SHT31;49532;45.068;38.928;2022-08-07T16:35:26;29.58;42.93
63397;SHT31;49532;45.068;38.928;2022-08-07T16:46:28;29.42;43.49
63397;SHT31;49532;45.068;38.928;2022-08-07T16:57:32;29.15;44.05
63397;SHT31;49532;45.068;38.928;2022-08-07T17:02:38;29.03;44.36
63397;SHT31;49532;45.068;38.928;2022-08-07T17:07:53;28.91;44.94
63397;SHT31;49532;45.068;38.928;2022-08-07T17:24:19;28.53;45.88
63397;SHT31;49532;45.068;38.928;2022-08-07T17:34:53;28.26;47.08
63397;SHT31;49532;45.068;38.928;2022-08-07T17:39:57;28.12;47.12
63397;SHT31;49532;45.068;38.928;2022-08-07T17:45:18;28.01;48.34
63397;SHT31;49532;45.068;38.928;2022-08-07T17:50:24;27.89;48.25
63397;SHT31;49532;45.068;38.928;2022-08-07T17:55:34;27.81;48.21
63397;SHT31;49532;45.068;38.928;2022-08-07T18:00:39;27.68;50.08
63397;SHT31;49532;45.068;38.928;2022-08-07T18:05:44;27.57;50.02
63397;SHT31;49532;45.068;38.928;2022-08-07T18:10:52;27.48;49.80
63397;SHT31;49532;45.068;38.928;2022-08-07T18:16:09;27.34;50.43
63397;SHT31;49532;45.068;38.928;2022-08-07T18:21:15;27.16;51.15
63397;SHT31;49532;45.068;38.928;2022-08-07T18:32:13;26.78;52.89
63397;SHT31;49532;45.068;38.928;2022-08-07T18:37:18;26.55;53.58
63397;SHT31;49532;45.068;38.928;2022-08-07T18:42:43;26.39;54.22
63397;SHT31;49532;45.068;38.928;2022-08-07T18:48:01;26.28;54.56
63397;SHT31;49532;45.068;38.928;2022-08-07T18:53:13;26.14;54.72
63397;SHT31;49532;45.068;38.928;2022-08-07T19:03:24;25.90;55.39
63397;SHT31;49532;45.068;38.928;2022-08-07T19:18:58;25.73;56.64
63397;SHT31;49532;45.068;38.928;2022-08-07T19:24:04;25.66;56.66
63397;SHT31;49532;45.068;38.928;2022-08-07T19:29:06;25.57;56.51
63397;SHT31;49532;45.068;38.928;2022-08-07T19:34:13;25.53;57.13
63397;SHT31;49532;45.068;38.928;2022-08-07T19:39:18;25.45;57.49
63397;SHT31;49532;45.068;38.928;2022-08-07T19:44:40;25.35;57.67
63397;SHT31;49532;45.068;38.928;2022-08-07T19:49:48;25.26;57.64
63397;SHT31;49532;45.068;38.928;2022-08-07T19:54:50;25.22;57.48
